sensor_id;sensor_type;location;lat;lon;timestamp;P1;durP1;ratioP1;P2;durP2;ratioP2
18612;SDS011;9436;52.152;21.032;2022-12-18T00:02:11;32.67;;;20.73;;
18612;SDS011;9436;52.152;21.032;2022-12-18T00:04:37;33.33;;;20.93;;
18612;SDS011;9436;52.152;21.032;2022-12-18T00:07:04;32.00;;;19.63;;
18612;SDS011;9436;52.152;21.032;2022-12-18T00:09:31;33.93;;;19.77;;
18612;SDS011;9436;52.152;21.032;2022-12-18T00:11:58;30.80;;;19.90;;
18612;SDS011;9436;52.152;21.032;2022-12-18T00:14:25;29.87;;;18.80;;
18612;SDS011;9436;52.152;21.032;2022-12-18T00:16:52;29.73;;;19.53;;
18612;SDS011;9436;52.152;21.032;2022-12-18T00:19:18;31.23;;;19.37;;
18612;SDS011;9436;52.152;21.032;2022-12-18T00:21:45;26.83;;;18.37;;
18612;SDS011;9436;52.152;21.032;2022-12-18T00:24:12;29.37;;;18.90;;
18612;SDS011;9436;52.152;21.032;2022-12-18T00:26:40;28.30;;;18.93;;
18612;SDS011;9436;52.152;21.032;2022-12-18T00:29:11;30.97;;;19.03;;
18612;SDS011;9436;52.152;21.032;2022-12-18T00:31:39;30.17;;;18.93;;
18612;SDS011;9436;52.152;21.032;2022-12-18T00:34:06;27.57;;;17.57;;
18612;SDS011;9436;52.152;21.032;2022-12-18T00:36:35;28.20;;;18.20;;
18612;SDS011;9436;52.152;21.032;2022-12-18T00:39:03;32.50;;;19.80;;
18612;SDS011;9436;52.152;21.032;2022-12-18T00:41:30;29.83;;;18.53;;
18612;SDS011;9436;52.152;21.032;2022-12-18T00:43:59;29.23;;;18.77;;
18612;SDS011;9436;52.152;21.032;2022-12-18T00:46:27;30.00;;;19.17;;
18612;SDS011;9436;52.152;21.032;2022-12-18T00:48:54;31.53;;;18.83;;
18612;SDS011;9436;52.152;21.032;2022-12-18T00:51:21;28.23;;;18.67;;
18612;SDS011;9436;52.152;21.032;2022-12-18T00:53:48;30.53;;;18.60;;
18612;SDS011;9436;52.152;21.032;2022-12-18T00:56:15;29.57;;;18.33;;
18612;SDS011;9436;52.152;21.032;2022-12-18T00:58:42;30.10;;;18.43;;
18612;SDS011;9436;52.152;21.032;2022-12-18T01:01:10;29.53;;;18.23;;
18612;SDS011;9436;52.152;21.032;2022-12-18T01:03:39;33.83;;;19.83;;
18612;SDS011;9436;52.152;21.032;2022-12-18T01:06:08;27.93;;;18.23;;
18612;SDS011;9436;52.152;21.032;2022-12-18T01:08:36;31.27;;;18.83;;
18612;SDS011;9436;52.152;21.032;2022-12-18T01:11:06;31.93;;;18.60;;
18612;SDS011;9436;52.152;21.032;2022-12-18T01:13:35;28.93;;;17.97;;
18612;SDS011;9436;52.152;21.032;2022-12-18T01:16:01;30.50;;;19.33;;
18612;SDS011;9436;52.152;21.032;2022-12-18T01:18:28;32.20;;;19.03;;
18612;SDS011;9436;52.152;21.032;2022-12-18T01:20:56;31.50;;;19.00;;
18612;SDS011;9436;52.152;21.032;2022-12-18T01:23:22;28.93;;;18.47;;
18612;SDS011;9436;52.152;21.032;2022-12-18T01:25:49;33.70;;;20.43;;
18612;SDS011;9436;52.152;21.032;2022-12-18T01:28:15;34.40;;;19.43;;
18612;SDS011;9436;52.152;21.032;2022-12-18T01:30:42;32.17;;;19.13;;
18612;SDS011;9436;52.152;21.032;2022-12-18T01:33:09;31.83;;;18.80;;
18612;SDS011;9436;52.152;21.032;2022-12-18T01:35:39;31.23;;;18.80;;
18612;SDS011;9436;52.152;21.032;2022-12-18T01:38:08;31.87;;;18.43;;
18612;SDS011;9436;52.152;21.032;2022-12-18T01:40:35;29.47;;;17.77;;
18612;SDS011;9436;52.152;21.032;2022-12-18T01:43:02;30.03;;;17.17;;
18612;SDS011;9436;52.152;21.032;2022-12-18T01:45:29;30.00;;;18.40;;
18612;SDS011;9436;52.152;21.032;2022-12-18T01:47:58;29.97;;;17.50;;
18612;SDS011;9436;52.152;21.032;2022-12-18T01:50:27;29.27;;;17.63;;
18612;SDS011;9436;52.152;21.032;2022-12-18T01:52:59;31.07;;;16.53;;
18612;SDS011;9436;52.152;21.032;2022-12-18T01:55:31;28.70;;;17.07;;
18612;SDS011;9436;52.152;21.032;2022-12-18T01:58:02;32.20;;;17.07;;
18612;SDS011;9436;52.152;21.032;2022-12-18T02:00:30;29.50;;;17.40;;
18612;SDS011;9436;52.152;21.032;2022-12-18T02:02:58;34.60;;;17.70;;
18612;SDS011;9436;52.152;21.032;2022-12-18T02:05:28;29.43;;;16.97;;
18612;SDS011;9436;52.152;21.032;2022-12-18T02:08:03;29.70;;;16.63;;
18612;SDS011;9436;52.152;21.032;2022-12-18T02:10:39;29.07;;;17.27;;
18612;SDS011;9436;52.152;21.032;2022-12-18T02:13:14;30.67;;;18.20;;
18612;SDS011;9436;52.152;21.032;2022-12-18T02:15:50;32.47;;;17.97;;
18612;SDS011;9436;52.152;21.032;2022-12-18T02:18:25;30.33;;;17.27;;
18612;SDS011;9436;52.152;21.032;2022-12-18T02:20:58;30.63;;;17.13;;
18612;SDS011;9436;52.152;21.032;2022-12-18T02:23:37;32.00;;;17.43;;
18612;SDS011;9436;52.152;21.032;2022-12-18T02:26:15;31.90;;;17.50;;
18612;SDS011;9436;52.152;21.032;2022-12-18T02:28:46;31.67;;;17.50;;
18612;SDS011;9436;52.152;21.032;2022-12-18T02:31:20;31.20;;;17.13;;
18612;SDS011;9436;52.152;21.032;2022-12-18T02:33:49;35.20;;;17.83;;
18612;SDS011;9436;52.152;21.032;2022-12-18T02:36:19;33.87;;;18.17;;
18612;SDS011;9436;52.152;21.032;2022-12-18T02:38:47;32.67;;;17.60;;
18612;SDS011;9436;52.152;21.032;2022-12-18T02:41:17;32.57;;;18.07;;
18612;SDS011;9436;52.152;21.032;2022-12-18T02:43:46;30.17;;;16.57;;
18612;SDS011;9436;52.152;21.032;2022-12-18T02:46:24;30.93;;;17.60;;
18612;SDS011;9436;52.152;21.032;2022-12-18T02:48:57;28.60;;;16.43;;
18612;SDS011;9436;52.152;21.032;2022-12-18T02:51:31;31.93;;;18.03;;
18612;SDS011;9436;52.152;21.032;2022-12-18T02:54:07;32.33;;;18.33;;
18612;SDS011;9436;52.152;21.032;2022-12-18T02:56:43;30.60;;;17.07;;
18612;SDS011;9436;52.152;21.032;2022-12-18T02:59:15;31.13;;;17.07;;
18612;SDS011;9436;52.152;21.032;2022-12-18T03:01:49;33.27;;;18.07;;
18612;SDS011;9436;52.152;21.032;2022-12-18T03:04:19;35.27;;;18.80;;
18612;SDS011;9436;52.152;21.032;2022-12-18T03:06:53;33.57;;;18.17;;
18612;SDS011;9436;52.152;21.032;2022-12-18T03:09:24;29.80;;;17.73;;
18612;SDS011;9436;52.152;21.032;2022-12-18T03:11:58;32.23;;;18.23;;
18612;SDS011;9436;52.152;21.032;2022-12-18T03:14:32;30.90;;;18.37;;
18612;SDS011;9436;52.152;21.032;2022-12-18T03:17:03;35.23;;;19.37;;
18612;SDS011;9436;52.152;21.032;2022-12-18T03:19:32;33.30;;;18.77;;
18612;SDS011;9436;52.152;21.032;2022-12-18T03:22:00;31.83;;;18.53;;
18612;SDS011;9436;52.152;21.032;2022-12-18T03:24:29;36.27;;;18.30;;
18612;SDS011;9436;52.152;21.032;2022-12-18T03:27:00;35.00;;;18.97;;
18612;SDS011;9436;52.152;21.032;2022-12-18T03:29:32;34.97;;;19.07;;
18612;SDS011;9436;52.152;21.032;2022-12-18T03:32:03;34.60;;;18.47;;
18612;SDS011;9436;52.152;21.032;2022-12-18T03:34:34;30.37;;;18.13;;
18612;SDS011;9436;52.152;21.032;2022-12-18T03:37:04;31.87;;;18.60;;
18612;SDS011;9436;52.152;21.032;2022-12-18T03:39:31;34.57;;;18.30;;
18612;SDS011;9436;52.152;21.032;2022-12-18T03:42:01;31.87;;;17.67;;
18612;SDS011;9436;52.152;21.032;2022-12-18T03:44:35;34.93;;;18.57;;
18612;SDS011;9436;52.152;21.032;2022-12-18T03:47:09;33.90;;;19.17;;
18612;SDS011;9436;52.152;21.032;2022-12-18T03:49:43;31.83;;;18.53;;
18612;SDS011;9436;52.152;21.032;2022-12-18T03:52:15;33.73;;;18.43;;
18612;SDS011;9436;52.152;21.032;2022-12-18T03:54:47;33.20;;;18.20;;
18612;SDS011;9436;52.152;21.032;2022-12-18T03:57:17;32.83;;;17.77;;
18612;SDS011;9436;52.152;21.032;2022-12-18T03:59:48;31.77;;;17.13;;
18612;SDS011;9436;52.152;21.032;2022-12-18T04:02:18;34.33;;;17.93;;
18612;SDS011;9436;52.152;21.032;2022-12-18T04:04:49;32.23;;;17.30;;
18612;SDS011;9436;52.152;21.032;2022-12-18T04:07:19;31.67;;;17.00;;
18612;SDS011;9436;52.152;21.032;2022-12-18T04:09:48;29.83;;;17.93;;
18612;SDS011;9436;52.152;21.032;2022-12-18T04:12:19;34.03;;;18.17;;
18612;SDS011;9436;52.152;21.032;2022-12-18T04:14:45;30.60;;;17.70;;
18612;SDS011;9436;52.152;21.032;2022-12-18T04:17:12;32.17;;;17.97;;
18612;SDS011;9436;52.152;21.032;2022-12-18T04:19:40;31.73;;;17.73;;
18612;SDS011;9436;52.152;21.032;2022-12-18T04:22:08;28.67;;;16.47;;
18612;SDS011;9436;52.152;21.032;2022-12-18T04:24:36;35.73;;;18.30;;
18612;SDS011;9436;52.152;21.032;2022-12-18T04:27:02;33.03;;;18.20;;
18612;SDS011;9436;52.152;21.032;2022-12-18T04:29:31;31.83;;;18.17;;
18612;SDS011;9436;52.152;21.032;2022-12-18T04:31:57;31.43;;;17.27;;
18612;SDS011;9436;52.152;21.032;2022-12-18T04:34:24;32.33;;;17.67;;
18612;SDS011;9436;52.152;21.032;2022-12-18T04:36:51;29.80;;;17.30;;
18612;SDS011;9436;52.152;21.032;2022-12-18T04:39:19;29.47;;;16.73;;
18612;SDS011;9436;52.152;21.032;2022-12-18T04:41:47;33.40;;;17.17;;
18612;SDS011;9436;52.152;21.032;2022-12-18T04:44:14;31.90;;;17.57;;
18612;SDS011;9436;52.152;21.032;2022-12-18T04:46:42;31.33;;;16.87;;
18612;SDS011;9436;52.152;21.032;2022-12-18T04:49:09;31.33;;;17.60;;
18612;SDS011;9436;52.152;21.032;2022-12-18T04:51:36;29.37;;;16.90;;
18612;SDS011;9436;52.152;21.032;2022-12-18T04:54:03;34.10;;;17.67;;
18612;SDS011;9436;52.152;21.032;2022-12-18T04:56:30;32.17;;;17.53;;
18612;SDS011;9436;52.152;21.032;2022-12-18T04:58:57;32.97;;;17.73;;
18612;SDS011;9436;52.152;21.032;2022-12-18T05:01:24;32.27;;;17.30;;
18612;SDS011;9436;52.152;21.032;2022-12-18T05:03:52;32.50;;;17.57;;
18612;SDS011;9436;52.152;21.032;2022-12-18T05:06:18;29.97;;;17.37;;
18612;SDS011;9436;52.152;21.032;2022-12-18T05:08:45;32.67;;;18.30;;
18612;SDS011;9436;52.152;21.032;2022-12-18T05:11:12;34.57;;;18.90;;
18612;SDS011;9436;52.152;21.032;2022-12-18T05:13:41;36.83;;;18.70;;
18612;SDS011;9436;52.152;21.032;2022-12-18T05:16:09;34.30;;;18.73;;
18612;SDS011;9436;52.152;21.032;2022-12-18T05:18:37;35.93;;;19.40;;
18612;SDS011;9436;52.152;21.032;2022-12-18T05:21:08;32.67;;;19.03;;
18612;SDS011;9436;52.152;21.032;2022-12-18T05:23:36;34.73;;;18.47;;
18612;SDS011;9436;52.152;21.032;2022-12-18T05:26:03;33.50;;;18.53;;
18612;SDS011;9436;52.152;21.032;2022-12-18T05:28:33;32.70;;;17.57;;
18612;SDS011;9436;52.152;21.032;2022-12-18T05:31:03;34.97;;;18.73;;
18612;SDS011;9436;52.152;21.032;2022-12-18T05:33:31;31.23;;;18.67;;
18612;SDS011;9436;52.152;21.032;2022-12-18T05:36:00;38.97;;;19.60;;
18612;SDS011;9436;52.152;21.032;2022-12-18T05:38:31;36.23;;;18.43;;
18612;SDS011;9436;52.152;21.032;2022-12-18T05:40:58;34.73;;;18.70;;
18612;SDS011;9436;52.152;21.032;2022-12-18T05:43:25;35.17;;;18.83;;
18612;SDS011;9436;52.152;21.032;2022-12-18T05:45:53;34.87;;;19.13;;
18612;SDS011;9436;52.152;21.032;2022-12-18T05:48:20;39.07;;;19.77;;
18612;SDS011;9436;52.152;21.032;2022-12-18T05:50:48;39.37;;;20.53;;
18612;SDS011;9436;52.152;21.032;2022-12-18T05:53:16;36.60;;;20.17;;
18612;SDS011;9436;52.152;21.032;2022-12-18T05:55:46;34.93;;;19.37;;
18612;SDS011;9436;52.152;21.032;2022-12-18T05:58:13;41.63;;;20.57;;
18612;SDS011;9436;52.152;21.032;2022-12-18T06:00:42;39.53;;;21.23;;
18612;SDS011;9436;52.152;21.032;2022-12-18T06:03:11;41.33;;;21.03;;
18612;SDS011;9436;52.152;21.032;2022-12-18T06:05:39;42.10;;;20.70;;
18612;SDS011;9436;52.152;21.032;2022-12-18T06:08:07;40.20;;;20.50;;
18612;SDS011;9436;52.152;21.032;2022-12-18T06:10:34;44.60;;;21.50;;
18612;SDS011;9436;52.152;21.032;2022-12-18T06:13:02;43.23;;;21.73;;
18612;SDS011;9436;52.152;21.032;2022-12-18T06:15:29;43.40;;;21.67;;
18612;SDS011;9436;52.152;21.032;2022-12-18T06:17:56;42.87;;;21.93;;
18612;SDS011;9436;52.152;21.032;2022-12-18T06:20:23;43.20;;;21.73;;
18612;SDS011;9436;52.152;21.032;2022-12-18T06:22:50;41.63;;;21.20;;
18612;SDS011;9436;52.152;21.032;2022-12-18T06:25:17;43.37;;;21.80;;
18612;SDS011;9436;52.152;21.032;2022-12-18T06:27:43;43.20;;;21.60;;
18612;SDS011;9436;52.152;21.032;2022-12-18T06:30:14;40.10;;;21.17;;
18612;SDS011;9436;52.152;21.032;2022-12-18T06:32:41;45.27;;;22.20;;
18612;SDS011;9436;52.152;21.032;2022-12-18T06:35:08;39.87;;;20.10;;
18612;SDS011;9436;52.152;21.032;2022-12-18T06:37:35;44.40;;;21.80;;
18612;SDS011;9436;52.152;21.032;2022-12-18T06:40:02;44.27;;;21.67;;
18612;SDS011;9436;52.152;21.032;2022-12-18T06:42:30;42.47;;;21.43;;
18612;SDS011;9436;52.152;21.032;2022-12-18T06:44:57;45.20;;;21.33;;
18612;SDS011;9436;52.152;21.032;2022-12-18T06:47:26;39.60;;;21.00;;
18612;SDS011;9436;52.152;21.032;2022-12-18T06:49:53;41.80;;;21.50;;
18612;SDS011;9436;52.152;21.032;2022-12-18T06:52:19;42.83;;;21.33;;
18612;SDS011;9436;52.152;21.032;2022-12-18T06:54:46;41.30;;;21.57;;
18612;SDS011;9436;52.152;21.032;2022-12-18T06:57:12;41.60;;;20.87;;
18612;SDS011;9436;52.152;21.032;2022-12-18T06:59:39;41.87;;;21.73;;
18612;SDS011;9436;52.152;21.032;2022-12-18T07:02:05;39.50;;;20.73;;
18612;SDS011;9436;52.152;21.032;2022-12-18T07:04:33;39.93;;;20.20;;
18612;SDS011;9436;52.152;21.032;2022-12-18T07:07:00;42.23;;;19.87;;
18612;SDS011;9436;52.152;21.032;2022-12-18T07:09:26;41.07;;;19.30;;
18612;SDS011;9436;52.152;21.032;2022-12-18T07:11:53;41.40;;;21.80;;
18612;SDS011;9436;52.152;21.032;2022-12-18T07:14:20;38.97;;;20.20;;
18612;SDS011;9436;52.152;21.032;2022-12-18T07:16:47;39.93;;;21.13;;
18612;SDS011;9436;52.152;21.032;2022-12-18T07:19:14;39.10;;;20.73;;
18612;SDS011;9436;52.152;21.032;2022-12-18T07:21:42;41.53;;;21.87;;
18612;SDS011;9436;52.152;21.032;2022-12-18T07:24:08;37.00;;;20.93;;
18612;SDS011;9436;52.152;21.032;2022-12-18T07:26:35;35.57;;;20.73;;
18612;SDS011;9436;52.152;21.032;2022-12-18T07:29:01;41.07;;;20.73;;
18612;SDS011;9436;52.152;21.032;2022-12-18T07:31:28;41.23;;;21.50;;
18612;SDS011;9436;52.152;21.032;2022-12-18T07:33:55;42.63;;;21.40;;
18612;SDS011;9436;52.152;21.032;2022-12-18T07:36:21;41.63;;;21.03;;
18612;SDS011;9436;52.152;21.032;2022-12-18T07:38:50;40.87;;;21.67;;
18612;SDS011;9436;52.152;21.032;2022-12-18T07:41:18;42.27;;;21.53;;
18612;SDS011;9436;52.152;21.032;2022-12-18T07:43:46;39.10;;;19.97;;
18612;SDS011;9436;52.152;21.032;2022-12-18T07:46:13;42.50;;;21.33;;
18612;SDS011;9436;52.152;21.032;2022-12-18T07:48:40;40.53;;;21.40;;
18612;SDS011;9436;52.152;21.032;2022-12-18T07:51:07;40.60;;;21.63;;
18612;SDS011;9436;52.152;21.032;2022-12-18T07:53:36;41.63;;;21.53;;
18612;SDS011;9436;52.152;21.032;2022-12-18T07:56:05;43.93;;;21.93;;
18612;SDS011;9436;52.152;21.032;2022-12-18T07:58:34;40.40;;;21.53;;
18612;SDS011;9436;52.152;21.032;2022-12-18T08:01:02;38.67;;;21.70;;
18612;SDS011;9436;52.152;21.032;2022-12-18T08:03:29;43.23;;;22.37;;
18612;SDS011;9436;52.152;21.032;2022-12-18T08:05:58;39.53;;;20.77;;
18612;SDS011;9436;52.152;21.032;2022-12-18T08:08:25;40.00;;;21.80;;
18612;SDS011;9436;52.152;21.032;2022-12-18T08:10:51;40.80;;;20.57;;
18612;SDS011;9436;52.152;21.032;2022-12-18T08:13:19;41.33;;;21.50;;
18612;SDS011;9436;52.152;21.032;2022-12-18T08:15:46;38.07;;;21.07;;
18612;SDS011;9436;52.152;21.032;2022-12-18T08:18:12;42.43;;;22.43;;
18612;SDS011;9436;52.152;21.032;2022-12-18T08:20:39;38.30;;;21.20;;
18612;SDS011;9436;52.152;21.032;2022-12-18T08:23:05;38.60;;;21.07;;
18612;SDS011;9436;52.152;21.032;2022-12-18T08:25:32;42.53;;;21.27;;
18612;SDS011;9436;52.152;21.032;2022-12-18T08:28:01;41.37;;;20.63;;
18612;SDS011;9436;52.152;21.032;2022-12-18T08:30:28;37.63;;;21.40;;
18612;SDS011;9436;52.152;21.032;2022-12-18T08:32:55;38.60;;;20.37;;
18612;SDS011;9436;52.152;21.032;2022-12-18T08:35:21;40.37;;;20.57;;
18612;SDS011;9436;52.152;21.032;2022-12-18T08:37:49;40.33;;;21.07;;
18612;SDS011;9436;52.152;21.032;2022-12-18T08:40:17;40.43;;;20.63;;
18612;SDS011;9436;52.152;21.032;2022-12-18T08:42:43;40.87;;;21.40;;
18612;SDS011;9436;52.152;21.032;2022-12-18T08:45:12;40.03;;;21.53;;
18612;SDS011;9436;52.152;21.032;2022-12-18T08:47:40;38.03;;;21.70;;
18612;SDS011;9436;52.152;21.032;2022-12-18T08:50:06;42.27;;;22.20;;
18612;SDS011;9436;52.152;21.032;2022-12-18T08:52:36;37.73;;;21.50;;
18612;SDS011;9436;52.152;21.032;2022-12-18T08:55:02;36.50;;;20.57;;
18612;SDS011;9436;52.152;21.032;2022-12-18T08:57:30;39.43;;;21.37;;
18612;SDS011;9436;52.152;21.032;2022-12-18T08:59:56;38.47;;;21.53;;
18612;SDS011;9436;52.152;21.032;2022-12-18T09:02:23;40.40;;;21.80;;
18612;SDS011;9436;52.152;21.032;2022-12-18T09:04:52;39.90;;;21.67;;
18612;SDS011;9436;52.152;21.032;2022-12-18T09:07:18;39.37;;;21.87;;
18612;SDS011;9436;52.152;21.032;2022-12-18T09:09:45;38.17;;;21.63;;
18612;SDS011;9436;52.152;21.032;2022-12-18T09:12:11;39.23;;;22.03;;
18612;SDS011;9436;52.152;21.032;2022-12-18T09:14:38;42.87;;;22.80;;
18612;SDS011;9436;52.152;21.032;2022-12-18T09:17:04;43.90;;;24.73;;
18612;SDS011;9436;52.152;21.032;2022-12-18T09:19:31;42.30;;;24.10;;
18612;SDS011;9436;52.152;21.032;2022-12-18T09:21:59;40.60;;;23.30;;
18612;SDS011;9436;52.152;21.032;2022-12-18T09:24:25;40.80;;;23.13;;
18612;SDS011;9436;52.152;21.032;2022-12-18T09:26:52;46.97;;;24.43;;
18612;SDS011;9436;52.152;21.032;2022-12-18T09:29:19;43.40;;;24.30;;
18612;SDS011;9436;52.152;21.032;2022-12-18T09:31:46;42.47;;;23.30;;
18612;SDS011;9436;52.152;21.032;2022-12-18T09:34:14;40.57;;;24.30;;
18612;SDS011;9436;52.152;21.032;2022-12-18T09:36:41;41.80;;;23.77;;
18612;SDS011;9436;52.152;21.032;2022-12-18T09:39:09;37.37;;;22.97;;
18612;SDS011;9436;52.152;21.032;2022-12-18T09:41:40;37.33;;;23.27;;
18612;SDS011;9436;52.152;21.032;2022-12-18T09:44:12;38.30;;;23.00;;
18612;SDS011;9436;52.152;21.032;2022-12-18T09:46:45;40.33;;;22.73;;
18612;SDS011;9436;52.152;21.032;2022-12-18T09:49:14;44.47;;;23.73;;
18612;SDS011;9436;52.152;21.032;2022-12-18T09:51:45;43.43;;;25.00;;
18612;SDS011;9436;52.152;21.032;2022-12-18T09:54:18;43.70;;;24.23;;
18612;SDS011;9436;52.152;21.032;2022-12-18T09:56:48;44.00;;;25.13;;
18612;SDS011;9436;52.152;21.032;2022-12-18T09:59:17;41.97;;;25.37;;
18612;SDS011;9436;52.152;21.032;2022-12-18T10:01:49;44.40;;;24.90;;
18612;SDS011;9436;52.152;21.032;2022-12-18T10:04:16;45.37;;;25.37;;
18612;SDS011;9436;52.152;21.032;2022-12-18T10:06:43;42.27;;;26.73;;
18612;SDS011;9436;52.152;21.032;2022-12-18T10:09:20;47.63;;;27.07;;
18612;SDS011;9436;52.152;21.032;2022-12-18T10:11:59;44.87;;;26.97;;
18612;SDS011;9436;52.152;21.032;2022-12-18T10:14:36;46.23;;;27.67;;
18612;SDS011;9436;52.152;21.032;2022-12-18T10:17:16;47.33;;;28.17;;
18612;SDS011;9436;52.152;21.032;2022-12-18T10:19:50;50.10;;;28.27;;
18612;SDS011;9436;52.152;21.032;2022-12-18T10:22:24;49.77;;;29.00;;
18612;SDS011;9436;52.152;21.032;2022-12-18T10:25:05;50.47;;;28.97;;
18612;SDS011;9436;52.152;21.032;2022-12-18T10:27:43;46.40;;;26.77;;
18612;SDS011;9436;52.152;21.032;2022-12-18T10:30:12;53.33;;;29.43;;
18612;SDS011;9436;52.152;21.032;2022-12-18T10:32:40;54.87;;;28.80;;
18612;SDS011;9436;52.152;21.032;2022-12-18T10:35:09;50.23;;;27.87;;
18612;SDS011;9436;52.152;21.032;2022-12-18T10:37:58;47.73;;;28.00;;
18612;SDS011;9436;52.152;21.032;2022-12-18T10:40:28;54.37;;;29.43;;
18612;SDS011;9436;52.152;21.032;2022-12-18T10:45:29;51.37;;;28.90;;
18612;SDS011;9436;52.152;21.032;2022-12-18T10:47:56;51.90;;;28.97;;
18612;SDS011;9436;52.152;21.032;2022-12-18T10:50:24;55.87;;;29.63;;
18612;SDS011;9436;52.152;21.032;2022-12-18T10:52:54;55.70;;;29.80;;
18612;SDS011;9436;52.152;21.032;2022-12-18T10:55:30;55.33;;;28.37;;
18612;SDS011;9436;52.152;21.032;2022-12-18T10:58:13;54.83;;;29.37;;
18612;SDS011;9436;52.152;21.032;2022-12-18T11:00:49;53.20;;;27.93;;
18612;SDS011;9436;52.152;21.032;2022-12-18T11:03:32;50.40;;;28.93;;
18612;SDS011;9436;52.152;21.032;2022-12-18T11:06:03;51.87;;;27.90;;
18612;SDS011;9436;52.152;21.032;2022-12-18T11:08:32;54.60;;;27.47;;
18612;SDS011;9436;52.152;21.032;2022-12-18T11:11:00;54.20;;;28.97;;
18612;SDS011;9436;52.152;21.032;2022-12-18T11:13:27;51.23;;;27.03;;
18612;SDS011;9436;52.152;21.032;2022-12-18T11:15:55;51.47;;;27.53;;
18612;SDS011;9436;52.152;21.032;2022-12-18T11:18:25;50.00;;;27.23;;
18612;SDS011;9436;52.152;21.032;2022-12-18T11:20:55;51.47;;;26.87;;
18612;SDS011;9436;52.152;21.032;2022-12-18T11:23:23;48.90;;;25.43;;
18612;SDS011;9436;52.152;21.032;2022-12-18T11:25:51;50.37;;;27.23;;
18612;SDS011;9436;52.152;21.032;2022-12-18T11:31:08;48.60;;;27.13;;
18612;SDS011;9436;52.152;21.032;2022-12-18T11:33:42;51.67;;;27.77;;
18612;SDS011;9436;52.152;21.032;2022-12-18T11:36:12;55.60;;;27.63;;
18612;SDS011;9436;52.152;21.032;2022-12-18T11:38:42;51.20;;;27.37;;
18612;SDS011;9436;52.152;21.032;2022-12-18T11:41:15;56.37;;;28.60;;
18612;SDS011;9436;52.152;21.032;2022-12-18T11:44:14;52.37;;;26.67;;
18612;SDS011;9436;52.152;21.032;2022-12-18T11:46:47;49.33;;;27.20;;
18612;SDS011;9436;52.152;21.032;2022-12-18T11:49:20;47.47;;;26.57;;
18612;SDS011;9436;52.152;21.032;2022-12-18T11:51:53;53.90;;;26.60;;
18612;SDS011;9436;52.152;21.032;2022-12-18T11:54:26;50.87;;;27.13;;
18612;SDS011;9436;52.152;21.032;2022-12-18T11:56:53;50.73;;;25.70;;
18612;SDS011;9436;52.152;21.032;2022-12-18T11:59:29;42.33;;;24.10;;
18612;SDS011;9436;52.152;21.032;2022-12-18T12:02:02;45.87;;;24.47;;
18612;SDS011;9436;52.152;21.032;2022-12-18T12:04:50;46.70;;;24.77;;
18612;SDS011;9436;52.152;21.032;2022-12-18T12:07:34;46.60;;;25.03;;
18612;SDS011;9436;52.152;21.032;2022-12-18T12:10:10;46.73;;;25.77;;
18612;SDS011;9436;52.152;21.032;2022-12-18T12:12:55;47.17;;;25.77;;
18612;SDS011;9436;52.152;21.032;2022-12-18T12:15:38;47.17;;;25.10;;
18612;SDS011;9436;52.152;21.032;2022-12-18T12:18:16;46.43;;;24.90;;
18612;SDS011;9436;52.152;21.032;2022-12-18T12:20:52;44.97;;;23.97;;
18612;SDS011;9436;52.152;21.032;2022-12-18T12:23:30;45.57;;;25.47;;
18612;SDS011;9436;52.152;21.032;2022-12-18T12:26:06;44.03;;;24.77;;
18612;SDS011;9436;52.152;21.032;2022-12-18T12:28:42;44.73;;;24.60;;
18612;SDS011;9436;52.152;21.032;2022-12-18T12:31:19;45.47;;;24.77;;
18612;SDS011;9436;52.152;21.032;2022-12-18T12:33:58;45.57;;;25.27;;
18612;SDS011;9436;52.152;21.032;2022-12-18T12:36:31;48.03;;;26.47;;
18612;SDS011;9436;52.152;21.032;2022-12-18T12:39:05;44.47;;;24.70;;
18612;SDS011;9436;52.152;21.032;2022-12-18T12:41:34;46.70;;;26.63;;
18612;SDS011;9436;52.152;21.032;2022-12-18T12:44:05;48.93;;;26.03;;
18612;SDS011;9436;52.152;21.032;2022-12-18T12:46:38;44.77;;;24.90;;
18612;SDS011;9436;52.152;21.032;2022-12-18T12:49:09;45.20;;;24.97;;
18612;SDS011;9436;52.152;21.032;2022-12-18T12:51:40;45.10;;;26.07;;
18612;SDS011;9436;52.152;21.032;2022-12-18T12:54:11;48.13;;;26.00;;
18612;SDS011;9436;52.152;21.032;2022-12-18T12:56:44;47.00;;;25.77;;
18612;SDS011;9436;52.152;21.032;2022-12-18T12:59:19;46.50;;;27.03;;
18612;SDS011;9436;52.152;21.032;2022-12-18T13:01:59;48.87;;;26.67;;
18612;SDS011;9436;52.152;21.032;2022-12-18T13:04:33;45.20;;;25.77;;
18612;SDS011;9436;52.152;21.032;2022-12-18T13:07:17;42.13;;;24.40;;
18612;SDS011;9436;52.152;21.032;2022-12-18T13:12:33;43.67;;;23.80;;
18612;SDS011;9436;52.152;21.032;2022-12-18T13:15:11;44.17;;;25.57;;
18612;SDS011;9436;52.152;21.032;2022-12-18T13:17:47;50.30;;;25.90;;
18612;SDS011;9436;52.152;21.032;2022-12-18T13:20:14;46.80;;;26.00;;
18612;SDS011;9436;52.152;21.032;2022-12-18T13:22:42;40.17;;;23.73;;
18612;SDS011;9436;52.152;21.032;2022-12-18T13:27:57;43.70;;;24.83;;
18612;SDS011;9436;52.152;21.032;2022-12-18T13:35:50;44.07;;;23.97;;
18612;SDS011;9436;52.152;21.032;2022-12-18T13:38:20;46.03;;;24.60;;
18612;SDS011;9436;52.152;21.032;2022-12-18T13:40:55;44.03;;;24.13;;
18612;SDS011;9436;52.152;21.032;2022-12-18T13:43:27;41.37;;;24.47;;
18612;SDS011;9436;52.152;21.032;2022-12-18T13:45:59;40.73;;;23.03;;
18612;SDS011;9436;52.152;21.032;2022-12-18T13:48:31;43.07;;;22.90;;
18612;SDS011;9436;52.152;21.032;2022-12-18T13:51:02;40.57;;;23.57;;
18612;SDS011;9436;52.152;21.032;2022-12-18T13:53:33;40.63;;;24.17;;
18612;SDS011;9436;52.152;21.032;2022-12-18T13:56:04;41.77;;;23.80;;
18612;SDS011;9436;52.152;21.032;2022-12-18T13:58:31;47.50;;;25.60;;
18612;SDS011;9436;52.152;21.032;2022-12-18T14:00:58;44.03;;;25.30;;
18612;SDS011;9436;52.152;21.032;2022-12-18T14:03:27;45.67;;;24.83;;
18612;SDS011;9436;52.152;21.032;2022-12-18T14:05:56;42.40;;;24.07;;
18612;SDS011;9436;52.152;21.032;2022-12-18T14:08:29;45.03;;;24.47;;
18612;SDS011;9436;52.152;21.032;2022-12-18T14:10:59;42.57;;;24.23;;
18612;SDS011;9436;52.152;21.032;2022-12-18T14:13:30;42.17;;;23.27;;
18612;SDS011;9436;52.152;21.032;2022-12-18T14:16:00;45.00;;;24.60;;
18612;SDS011;9436;52.152;21.032;2022-12-18T14:18:31;42.27;;;23.70;;
18612;SDS011;9436;52.152;21.032;2022-12-18T14:21:05;41.83;;;23.83;;
18612;SDS011;9436;52.152;21.032;2022-12-18T14:23:43;45.37;;;24.80;;
18612;SDS011;9436;52.152;21.032;2022-12-18T14:28:42;43.10;;;25.30;;
18612;SDS011;9436;52.152;21.032;2022-12-18T14:31:16;42.43;;;24.50;;
18612;SDS011;9436;52.152;21.032;2022-12-18T14:33:46;46.73;;;24.73;;
18612;SDS011;9436;52.152;21.032;2022-12-18T14:36:14;40.67;;;24.00;;
18612;SDS011;9436;52.152;21.032;2022-12-18T14:38:47;43.00;;;24.50;;
18612;SDS011;9436;52.152;21.032;2022-12-18T14:41:16;46.77;;;26.07;;
18612;SDS011;9436;52.152;21.032;2022-12-18T14:43:44;45.57;;;26.10;;
18612;SDS011;9436;52.152;21.032;2022-12-18T14:46:25;49.23;;;27.43;;
18612;SDS011;9436;52.152;21.032;2022-12-18T14:48:54;44.83;;;25.77;;
18612;SDS011;9436;52.152;21.032;2022-12-18T14:51:22;44.27;;;24.87;;
18612;SDS011;9436;52.152;21.032;2022-12-18T14:53:54;47.00;;;26.80;;
18612;SDS011;9436;52.152;21.032;2022-12-18T14:56:23;45.97;;;26.07;;